sensor_id;sensor_type;location;lat;lon;timestamp;temperature;humidity
10143;DHT22;5112;54.088;13.446;2022-12-16T00:02:58;-2.80;99.90
10143;DHT22;5112;54.088;13.446;2022-12-16T00:13:02;-2.90;99.90
10143;DHT22;5112;54.088;13.446;2022-12-16T00:23:03;-2.80;99.90
10143;DHT22;5112;54.088;13.446;2022-12-16T00:33:07;-2.80;99.90
10143;DHT22;5112;54.088;13.446;2022-12-16T00:43:09;-2.70;99.90
10143;DHT22;5112;54.088;13.446;2022-12-16T00:53:13;-2.70;99.90
10143;DHT22;5112;54.088;13.446;2022-12-16T01:03:14;-2.60;99.90
10143;DHT22;5112;54.088;13.446;2022-12-16T01:13:18;-2.60;99.90
10143;DHT22;5112;54.088;13.446;2022-12-16T01:23:19;-2.60;99.90
10143;DHT22;5112;54.088;13.446;2022-12-16T01:33:23;-2.60;99.90
10143;DHT22;5112;54.088;13.446;2022-12-16T01:43:26;-2.50;99.90
10143;DHT22;5112;54.088;13.446;2022-12-16T01:53:30;-2.60;99.90
10143;DHT22;5112;54.088;13.446;2022-12-16T02:03:34;-2.60;99.90
10143;DHT22;5112;54.088;13.446;2022-12-16T02:13:48;-2.40;99.90
10143;DHT22;5112;54.088;13.446;2022-12-16T02:34:33;-2.60;99.90
10143;DHT22;5112;54.088;13.446;2022-12-16T02:44:43;-2.60;99.90
10143;DHT22;5112;54.088;13.446;2022-12-16T02:54:53;-2.60;99.90
10143;DHT22;5112;54.088;13.446;2022-12-16T03:05:01;-2.70;99.90
10143;DHT22;5112;54.088;13.446;2022-12-16T03:15:09;-2.60;99.90
10143;DHT22;5112;54.088;13.446;2022-12-16T03:25:11;-2.50;99.90
10143;DHT22;5112;54.088;13.446;2022-12-16T03:35:17;-2.50;99.90
10143;DHT22;5112;54.088;13.446;2022-12-16T03:45:23;-2.50;99.90
10143;DHT22;5112;54.088;13.446;2022-12-16T03:55:28;-2.50;99.90
10143;DHT22;5112;54.088;13.446;2022-12-16T04:05:30;-2.50;99.90
10143;DHT22;5112;54.088;13.446;2022-12-16T04:15:33;-2.50;99.90
10143;DHT22;5112;54.088;13.446;2022-12-16T04:25:52;-2.50;99.90
10143;DHT22;5112;54.088;13.446;2022-12-16T04:35:55;-2.50;99.90
10143;DHT22;5112;54.088;13.446;2022-12-16T04:46:14;-2.50;99.90
10143;DHT22;5112;54.088;13.446;2022-12-16T04:56:35;-2.50;99.90
10143;DHT22;5112;54.088;13.446;2022-12-16T05:06:55;-2.50;99.90
10143;DHT22;5112;54.088;13.446;2022-12-16T05:17:16;-2.50;99.90
10143;DHT22;5112;54.088;13.446;2022-12-16T05:27:35;-2.40;99.90
10143;DHT22;5112;54.088;13.446;2022-12-16T05:37:55;-2.40;99.90
10143;DHT22;5112;54.088;13.446;2022-12-16T05:48:15;-2.50;99.90
10143;DHT22;5112;54.088;13.446;2022-12-16T05:58:36;-2.50;99.90
10143;DHT22;5112;54.088;13.446;2022-12-16T06:08:55;-2.50;99.90
10143;DHT22;5112;54.088;13.446;2022-12-16T06:19:15;-2.40;99.90
10143;DHT22;5112;54.088;13.446;2022-12-16T06:29:35;-2.20;99.90
10143;DHT22;5112;54.088;13.446;2022-12-16T06:39:55;-2.20;99.90
10143;DHT22;5112;54.088;13.446;2022-12-16T06:50:14;-2.20;99.90
10143;DHT22;5112;54.088;13.446;2022-12-16T07:00:35;-2.20;99.90
10143;DHT22;5112;54.088;13.446;2022-12-16T07:10:54;-2.20;99.90
10143;DHT22;5112;54.088;13.446;2022-12-16T07:21:15;-2.30;99.90
10143;DHT22;5112;54.088;13.446;2022-12-16T07:31:34;-2.40;99.90
10143;DHT22;5112;54.088;13.446;2022-12-16T07:41:54;-2.60;99.90
10143;DHT22;5112;54.088;13.446;2022-12-16T07:52:13;-2.70;99.90
10143;DHT22;5112;54.088;13.446;2022-12-16T08:02:34;-2.60;99.90
10143;DHT22;5112;54.088;13.446;2022-12-16T08:12:59;-2.30;99.90
10143;DHT22;5112;54.088;13.446;2022-12-16T08:23:20;-2.10;99.90
10143;DHT22;5112;54.088;13.446;2022-12-16T08:33:39;-2.00;99.90
10143;DHT22;5112;54.088;13.446;2022-12-16T08:43:59;-1.90;99.90
10143;DHT22;5112;54.088;13.446;2022-12-16T08:54:19;-2.00;99.90
10143;DHT22;5112;54.088;13.446;2022-12-16T09:04:39;-2.30;99.90
10143;DHT22;5112;54.088;13.446;2022-12-16T09:14:58;-2.00;99.90
10143;DHT22;5112;54.088;13.446;2022-12-16T09:25:19;-1.70;99.90
10143;DHT22;5112;54.088;13.446;2022-12-16T09:35:39;-1.40;99.90
10143;DHT22;5112;54.088;13.446;2022-12-16T09:46:04;-1.10;99.90
10143;DHT22;5112;54.088;13.446;2022-12-16T09:56:29;-0.90;99.90
10143;DHT22;5112;54.088;13.446;2022-12-16T10:06:51;-0.80;99.90
10143;DHT22;5112;54.088;13.446;2022-12-16T10:17:12;-0.70;99.90
10143;DHT22;5112;54.088;13.446;2022-12-16T10:27:40;-0.40;99.90
10143;DHT22;5112;54.088;13.446;2022-12-16T10:38:02;-0.40;99.90
10143;DHT22;5112;54.088;13.446;2022-12-16T10:48:33;-0.40;99.90
10143;DHT22;5112;54.088;13.446;2022-12-16T10:58:55;-0.20;99.90
10143;DHT22;5112;54.088;13.446;2022-12-16T11:09:21;-0.20;99.90
10143;DHT22;5112;54.088;13.446;2022-12-16T11:19:42;0.00;99.90
10143;DHT22;5112;54.088;13.446;2022-12-16T11:30:00;-0.20;99.90
10143;DHT22;5112;54.088;13.446;2022-12-16T11:40:21;-0.60;99.90
10143;DHT22;5112;54.088;13.446;2022-12-16T11:50:49;-0.80;99.90
10143;DHT22;5112;54.088;13.446;2022-12-16T12:01:13;-0.70;99.90
10143;DHT22;5112;54.088;13.446;2022-12-16T12:11:37;-0.50;99.90
10143;DHT22;5112;54.088;13.446;2022-12-16T12:22:01;-0.50;99.90
10143;DHT22;5112;54.088;13.446;2022-12-16T12:32:30;-0.40;99.90
10143;DHT22;5112;54.088;13.446;2022-12-16T12:42:54;-0.30;99.90
10143;DHT22;5112;54.088;13.446;2022-12-16T12:53:27;-0.40;99.90
10143;DHT22;5112;54.088;13.446;2022-12-16T13:03:51;-0.40;99.90
10143;DHT22;5112;54.088;13.446;2022-12-16T13:14:52;-0.50;99.90
10143;DHT22;5112;54.088;13.446;2022-12-16T13:25:35;-0.70;99.90
10143;DHT22;5112;54.088;13.446;2022-12-16T13:35:57;-0.30;99.90
10143;DHT22;5112;54.088;13.446;2022-12-16T13:46:17;0.10;99.90
10143;DHT22;5112;54.088;13.446;2022-12-16T13:56:40;-0.30;99.90
10143;DHT22;5112;54.088;13.446;2022-12-16T14:07:02;-0.30;99.90
10143;DHT22;5112;54.088;13.446;2022-12-16T14:17:28;-0.60;99.90
10143;DHT22;5112;54.088;13.446;2022-12-16T14:27:50;-1.10;99.90
10143;DHT22;5112;54.088;13.446;2022-12-16T14:38:20;-1.40;99.90
10143;DHT22;5112;54.088;13.446;2022-12-16T14:48:45;-1.70;99.90
10143;DHT22;5112;54.088;13.446;2022-12-16T14:59:20;-2.10;99.90
10143;DHT22;5112;54.088;13.446;2022-12-16T15:09:42;-2.30;99.90
10143;DHT22;5112;54.088;13.446;2022-12-16T15:20:04;-2.70;99.90
10143;DHT22;5112;54.088;13.446;2022-12-16T15:30:33;-3.10;99.90
10143;DHT22;5112;54.088;13.446;2022-12-16T15:40:54;-3.30;99.90
10143;DHT22;5112;54.088;13.446;2022-12-16T15:51:22;-3.20;99.90
10143;DHT22;5112;54.088;13.446;2022-12-16T16:01:43;-3.20;99.90
10143;DHT22;5112;54.088;13.446;2022-12-16T16:12:12;-3.10;99.90
10143;DHT22;5112;54.088;13.446;2022-12-16T16:22:33;-3.00;99.90
10143;DHT22;5112;54.088;13.446;2022-12-16T16:32:53;-3.20;99.90
10143;DHT22;5112;54.088;13.446;2022-12-16T16:43:13;-3.60;99.90
10143;DHT22;5112;54.088;13.446;2022-12-16T16:53:32;-3.70;99.90
10143;DHT22;5112;54.088;13.446;2022-12-16T17:03:52;-3.70;99.90
10143;DHT22;5112;54.088;13.446;2022-12-16T17:14:13;-3.60;99.90
10143;DHT22;5112;54.088;13.446;2022-12-16T17:24:39;-3.60;99.90
10143;DHT22;5112;54.088;13.446;2022-12-16T17:34:59;-3.70;99.90
10143;DHT22;5112;54.088;13.446;2022-12-16T17:45:19;-3.70;99.90
10143;DHT22;5112;54.088;13.446;2022-12-16T17:55:39;-3.90;99.90
10143;DHT22;5112;54.088;13.446;2022-12-16T18:05:59;-4.00;99.90
10143;DHT22;5112;54.088;13.446;2022-12-16T18:16:18;-4.20;99.90
10143;DHT22;5112;54.088;13.446;2022-12-16T18:26:39;-4.30;99.90
10143;DHT22;5112;54.088;13.446;2022-12-16T18:36:58;-4.50;99.90
10143;DHT22;5112;54.088;13.446;2022-12-16T18:47:24;-4.50;99.90
10143;DHT22;5112;54.088;13.446;2022-12-16T18:57:43;-4.50;99.90
10143;DHT22;5112;54.088;13.446;2022-12-16T19:08:00;-4.50;99.90
10143;DHT22;5112;54.088;13.446;2022-12-16T19:18:19;-4.20;99.90
10143;DHT22;5112;54.088;13.446;2022-12-16T19:28:40;-4.10;99.90
10143;DHT22;5112;54.088;13.446;2022-12-16T19:39:00;-4.20;99.90
10143;DHT22;5112;54.088;13.446;2022-12-16T19:49:20;-4.50;99.90
10143;DHT22;5112;54.088;13.446;2022-12-16T19:59:40;-4.60;99.90
10143;DHT22;5112;54.088;13.446;2022-12-16T20:10:00;-4.60;99.90
10143;DHT22;5112;54.088;13.446;2022-12-16T20:20:19;-4.60;99.90
10143;DHT22;5112;54.088;13.446;2022-12-16T20:30:40;-4.50;99.90
10143;DHT22;5112;54.088;13.446;2022-12-16T20:41:00;-4.50;99.90
10143;DHT22;5112;54.088;13.446;2022-12-16T20:51:22;-4.60;99.90
10143;DHT22;5112;54.088;13.446;2022-12-16T21:01:41;-4.80;99.90
10143;DHT22;5112;54.088;13.446;2022-12-16T21:12:02;-4.70;99.90
10143;DHT22;5112;54.088;13.446;2022-12-16T21:22:21;-4.40;99.90
10143;DHT22;5112;54.088;13.446;2022-12-16T21:32:41;-4.30;99.90
10143;DHT22;5112;54.088;13.446;2022-12-16T21:43:00;-4.10;99.90
10143;DHT22;5112;54.088;13.446;2022-12-16T21:53:21;-4.10;99.90
10143;DHT22;5112;54.088;13.446;2022-12-16T22:03:40;-4.20;99.90
10143;DHT22;5112;54.088;13.446;2022-12-16T22:14:01;-4.30;99.90
10143;DHT22;5112;54.088;13.446;2022-12-16T22:24:20;-4.30;99.90
10143;DHT22;5112;54.088;13.446;2022-12-16T22:34:41;-4.10;99.90
10143;DHT22;5112;54.088;13.446;2022-12-16T22:45:00;-3.90;99.90
10143;DHT22;5112;54.088;13.446;2022-12-16T22:55:32;-3.70;99.90
10143;DHT22;5112;54.088;13.446;2022-12-16T23:05:52;-3.70;99.90
10143;DHT22;5112;54.088;13.446;2022-12-16T23:16:12;-3.70;99.90
10143;DHT22;5112;54.088;13.446;2022-12-16T23:26:32;-3.90;99.90
10143;DHT22;5112;54.088;13.446;2022-12-16T23:36:52;-4.20;99.90
10143;DHT22;5112;54.088;13.446;2022-12-16T23:47:11;-4.30;99.90
10143;DHT22;5112;54.088;13.446;2022-12-16T23:57:32;-4.50;99.90
